首页
METAR-TAF:

METAR-TAF

机场 :

安東尼奧·汪帕特國際機場

阿加尼亚, 關島, 美国

纬度: 13-29N, 经度: 144-48E, 海拔: 91米

当前天气观测

该预报发布于44分钟前的13:54 UTC
风速6节,风向北转东北
温度 28°C
湿度 94%
气压 1008 hPa
能見度: 16.1公里
天空无云

METAR: PGUM 231354Z 02006KT 10SM CLR 28/27 A2976 RMK AO2 SLP067 T02780272 403390267

时间: 00:38 (14:38 UTC)

预报

该预报发布于2小时和5分钟前的12:33 UTC
预报有效从23日的 13点(UTC)到 24日的 18点(UTC)
风速10节,风向北转东北
能見度: 10公里
少量云层高于1800英尺
散云层高于3000英尺
散云层高于12000英尺
附近有阵雨
从 24日的 0100点(UTC)
风速15节,风向,有时为22节阵风
能見度: 10公里
少量云层高于1800英尺
散云层高于3000英尺
多云层高于12000英尺
附近有阵雨
从 24日的 0600点(UTC)
风速16节,风向北转西北,有时为26节阵风
能見度: 10公里
散云层高于1800英尺
多云层高于3000英尺
多云层高于12000英尺
附近有阵雨
从 24日的 1700点(UTC)
风速20节,风向西,有时为35节阵风
能見度: 6.4公里
散云层高于1500英尺
阴天层高于3000英尺
阵雨

TAF: PGUM 231233Z 2313/2418 03010KT P6SM VCSH FEW018 SCT030 SCT120 FM240100 36015G22KT P6SM VCSH FEW018 SCT030 BKN120 FM240600 34016G26KT P6SM VCSH SCT018 BKN030 BKN120 FM241700 28020G35KT 4SM SHRA SCT015 OVC030

超过4000个机场的气象观测和天气预报(METAR&TAF报告)。

可查询的气象台以黄色和红色小点在地图上表示。

将鼠标移到小点上方,可查看气象台名称。

然后点击查看天气观测和预报。

如需切换地图:点击带黑十字的绿色按钮放大地图;点击带横线的绿色按钮缩小地图;或者点击绿色箭头查看邻近地区的地图。


METAR-TAF: